createdAt,value
2017-09-25T00:01:42.218Z,85.38
2017-09-25T00:04:09.691Z,85.61
2017-09-25T00:06:37.239Z,85.69
2017-09-25T00:09:04.717Z,85.07
2017-09-25T00:11:32.173Z,84.83
2017-09-25T00:13:59.662Z,84.69
2017-09-25T00:16:27.116Z,84.72
2017-09-25T00:18:54.580Z,84.06
2017-09-25T00:21:22.063Z,85.00
2017-09-25T00:23:49.520Z,84.50
2017-09-25T00:26:17.022Z,85.46
2017-09-25T00:28:44.491Z,85.64
2017-09-25T00:31:11.969Z,85.42
2017-09-25T00:33:39.431Z,85.53
2017-09-25T00:36:06.916Z,85.69
2017-09-25T00:38:34.375Z,85.62
2017-09-25T00:41:01.850Z,86.26
2017-09-25T00:43:29.302Z,85.78
2017-09-25T00:45:56.787Z,85.78
2017-09-25T00:48:24.243Z,85.82
2017-09-25T00:50:51.724Z,85.62
2017-09-25T00:53:26.671Z,86.28
2017-09-25T00:55:54.153Z,85.66
2017-09-25T00:58:21.615Z,86.33
2017-09-25T01:01:00.960Z,87.56
2017-09-25T01:03:40.395Z,86.58
2017-09-25T01:06:19.767Z,86.43
2017-09-25T01:08:47.241Z,86.01
2017-09-25T01:11:14.732Z,86.33
2017-09-25T01:13:42.196Z,86.75
2017-09-25T01:16:09.702Z,86.68
2017-09-25T01:18:37.187Z,87.49
2017-09-25T01:21:04.745Z,86.79
2017-09-25T01:23:32.194Z,86.47
2017-09-25T01:25:59.670Z,86.43
2017-09-25T01:28:27.183Z,86.73
2017-09-25T01:30:54.669Z,87.62
2017-09-25T01:33:22.176Z,87.70
2017-09-25T01:35:49.632Z,86.82
2017-09-25T01:38:17.117Z,86.47
2017-09-25T01:40:44.621Z,85.72
2017-09-25T01:43:12.117Z,85.69
2017-09-25T01:45:39.567Z,85.21
2017-09-25T01:48:07.044Z,85.43
2017-09-25T01:50:34.508Z,85.18
2017-09-25T01:53:01.997Z,85.93
2017-09-25T01:55:29.551Z,85.53
2017-09-25T01:57:57.036Z,85.56
2017-09-25T02:00:24.575Z,86.02
2017-09-25T02:02:52.058Z,85.87
2017-09-25T02:05:19.518Z,85.93
2017-09-25T02:07:47.009Z,85.78
2017-09-25T02:10:14.464Z,85.49
2017-09-25T02:12:41.931Z,85.34
2017-09-25T02:15:09.380Z,85.39
2017-09-25T02:17:36.850Z,85.24
2017-09-25T02:20:04.309Z,85.32
2017-09-25T02:22:31.798Z,85.65
2017-09-25T02:24:59.284Z,85.86
2017-09-25T02:27:26.758Z,86.05
2017-09-25T02:29:54.236Z,86.27
2017-09-25T02:32:21.706Z,85.86
2017-09-25T02:34:49.184Z,87.39
2017-09-25T02:37:16.641Z,88.24
2017-09-25T02:39:44.185Z,89.20
2017-09-25T02:42:11.641Z,88.79
2017-09-25T02:44:39.112Z,88.84
2017-09-25T02:47:06.650Z,89.60
2017-09-25T02:49:34.133Z,89.55
2017-09-25T02:52:01.586Z,89.78
2017-09-25T02:54:29.068Z,89.59
2017-09-25T02:56:56.523Z,90.18
2017-09-25T02:59:24.004Z,90.39
2017-09-25T03:01:51.481Z,90.75
2017-09-25T03:04:18.968Z,89.77
2017-09-25T03:06:46.447Z,90.56
2017-09-25T03:09:13.936Z,91.77
2017-09-25T03:11:41.415Z,92.75
2017-09-25T03:14:08.901Z,93.30
2017-09-25T03:16:36.366Z,93.94
2017-09-25T03:19:03.854Z,93.79
2017-09-25T03:21:31.325Z,93.59
2017-09-25T03:23:58.805Z,94.11
2017-09-25T03:26:26.263Z,94.03
2017-09-25T03:28:53.755Z,94.26
2017-09-25T03:31:21.216Z,93.73
2017-09-25T03:33:48.727Z,93.62
2017-09-25T03:36:16.314Z,93.29
2017-09-25T03:38:43.789Z,93.31
2017-09-25T03:41:11.269Z,92.83
2017-09-25T03:43:38.723Z,93.11
2017-09-25T03:46:06.191Z,92.81
2017-09-25T03:48:33.649Z,93.81
2017-09-25T03:51:01.118Z,93.94
2017-09-25T03:53:28.581Z,93.42
2017-09-25T03:55:56.064Z,93.76
2017-09-25T03:58:23.546Z,94.30
2017-09-25T04:00:51.032Z,93.89
2017-09-25T04:03:18.515Z,92.88
2017-09-25T04:05:45.996Z,92.59
2017-09-25T04:08:13.457Z,92.46
2017-09-25T04:10:40.936Z,92.19
2017-09-25T04:13:08.432Z,91.91
2017-09-25T04:15:35.921Z,92.13
2017-09-25T04:18:03.375Z,92.75
2017-09-25T04:20:30.861Z,92.90
2017-09-25T04:22:58.327Z,92.13
2017-09-25T04:25:25.816Z,91.48
2017-09-25T04:27:53.273Z,91.10
2017-09-25T04:30:20.753Z,91.49
2017-09-25T04:32:48.206Z,90.71
2017-09-25T04:35:15.701Z,91.42
2017-09-25T04:37:43.173Z,90.88
2017-09-25T04:40:10.660Z,91.45
2017-09-25T04:42:38.128Z,91.80
2017-09-25T04:45:05.685Z,92.10
2017-09-25T04:47:33.159Z,90.12
2017-09-25T04:50:00.707Z,89.90
2017-09-25T04:52:28.196Z,90.89
2017-09-25T04:54:55.665Z,91.18
2017-09-25T04:57:23.153Z,91.63
2017-09-25T04:59:50.635Z,92.31
2017-09-25T05:02:18.110Z,93.29
2017-09-25T05:04:45.592Z,93.36
2017-09-25T05:07:13.111Z,93.05
2017-09-25T05:09:40.587Z,92.86
2017-09-25T05:12:08.065Z,92.79
2017-09-25T05:14:35.520Z,93.28
2017-09-25T05:17:03.001Z,93.23
2017-09-25T05:19:30.443Z,93.31
2017-09-25T05:21:57.931Z,92.74
2017-09-25T05:24:25.393Z,92.53
2017-09-25T05:26:52.867Z,92.54
2017-09-25T05:29:20.322Z,92.50
2017-09-25T05:31:47.796Z,92.31
2017-09-25T05:34:15.254Z,91.89
2017-09-25T05:36:42.723Z,91.70
2017-09-25T05:39:10.189Z,92.32
2017-09-25T05:41:37.683Z,92.69
2017-09-25T05:44:05.158Z,93.00
2017-09-25T05:46:32.616Z,93.15
2017-09-25T05:49:00.159Z,93.44
2017-09-25T05:51:27.619Z,93.20
2017-09-25T05:53:55.104Z,93.16
2017-09-25T05:56:22.570Z,93.54
2017-09-25T05:58:50.065Z,93.57
2017-09-25T06:01:17.529Z,94.21
2017-09-25T06:03:44.993Z,94.72
2017-09-25T06:06:12.594Z,95.21
2017-09-25T06:08:40.056Z,94.61
2017-09-25T06:11:07.549Z,94.99
2017-09-25T06:13:35.007Z,94.98
2017-09-25T06:16:02.474Z,95.18
2017-09-25T06:18:29.929Z,94.59
2017-09-25T06:20:57.407Z,94.87
2017-09-25T06:23:24.898Z,95.21
2017-09-25T06:25:52.380Z,95.95
2017-09-25T06:28:19.850Z,95.85
2017-09-25T06:30:47.325Z,94.26
2017-09-25T06:33:14.800Z,94.76
2017-09-25T06:35:42.272Z,94.49
2017-09-25T06:38:09.750Z,94.71
2017-09-25T06:40:37.232Z,94.15
2017-09-25T06:43:04.722Z,93.67
2017-09-25T06:45:32.211Z,93.91
2017-09-25T06:47:59.689Z,93.89
2017-09-25T06:50:27.176Z,94.29
2017-09-25T06:52:54.642Z,94.38
2017-09-25T06:55:22.115Z,94.76
2017-09-25T06:57:49.576Z,94.05
2017-09-25T07:00:17.112Z,92.76
2017-09-25T07:02:44.580Z,93.00
2017-09-25T07:05:12.079Z,91.17
2017-09-25T07:07:39.553Z,91.47
2017-09-25T07:10:07.071Z,91.63
2017-09-25T07:12:34.512Z,93.40
2017-09-25T07:15:02.024Z,93.89
2017-09-25T07:17:29.469Z,93.73
2017-09-25T07:19:56.942Z,92.70
2017-09-25T07:22:24.424Z,93.36
2017-09-25T07:24:51.933Z,93.60
2017-09-25T07:27:19.405Z,92.54
2017-09-25T07:29:46.874Z,93.43
2017-09-25T07:32:14.355Z,93.64
2017-09-25T07:34:41.811Z,91.56
2017-09-25T07:37:09.287Z,92.68
2017-09-25T07:39:36.753Z,93.61
2017-09-25T07:42:04.232Z,93.53
2017-09-25T07:44:31.696Z,93.33
2017-09-25T07:46:59.181Z,93.60
2017-09-25T07:49:26.805Z,93.70
2017-09-25T07:51:54.282Z,93.26
2017-09-25T07:54:21.755Z,93.49
2017-09-25T07:56:49.227Z,93.83
2017-09-25T07:59:16.789Z,93.46
2017-09-25T08:01:44.280Z,93.09
2017-09-25T08:04:11.798Z,93.60
2017-09-25T08:06:39.276Z,92.55
2017-09-25T08:09:06.759Z,92.39
2017-09-25T08:11:34.248Z,91.88
2017-09-25T08:14:01.728Z,90.96
2017-09-25T08:16:29.320Z,90.30
2017-09-25T08:18:56.794Z,88.98
2017-09-25T08:21:24.275Z,90.67
2017-09-25T08:23:51.737Z,88.16
2017-09-25T08:26:19.234Z,87.75
2017-09-25T08:28:46.777Z,87.83
2017-09-25T08:31:14.350Z,88.38
2017-09-25T08:33:41.808Z,87.24
2017-09-25T08:36:09.356Z,86.50
2017-09-25T08:38:36.917Z,87.56
2017-09-25T08:41:04.388Z,87.46
2017-09-25T08:43:31.938Z,87.04
2017-09-25T08:45:59.416Z,86.39
2017-09-25T08:48:26.988Z,87.19
2017-09-25T08:50:54.464Z,84.71
2017-09-25T08:53:21.960Z,85.35
2017-09-25T08:55:49.424Z,83.11
2017-09-25T08:58:16.946Z,83.86
2017-09-25T09:00:44.423Z,85.79
2017-09-25T09:03:11.899Z,84.77
2017-09-25T09:05:39.369Z,84.91
2017-09-25T09:08:06.866Z,85.48
2017-09-25T09:10:34.328Z,84.17
2017-09-25T09:13:02.017Z,83.45
2017-09-25T09:15:29.527Z,81.36
2017-09-25T09:17:57.028Z,81.61
2017-09-25T09:20:24.485Z,82.49
2017-09-25T09:22:52.013Z,81.85
2017-09-25T09:25:19.473Z,80.81
2017-09-25T09:27:47.072Z,80.78
2017-09-25T09:30:14.541Z,80.72
2017-09-25T09:32:42.107Z,80.57
2017-09-25T09:35:09.565Z,79.99
2017-09-25T09:37:37.101Z,78.68
2017-09-25T09:40:04.572Z,78.80
2017-09-25T09:42:32.038Z,77.86
2017-09-25T09:44:59.563Z,76.67
2017-09-25T09:47:27.044Z,75.64
2017-09-25T09:49:54.589Z,75.27
2017-09-25T09:52:22.043Z,74.25
2017-09-25T09:54:49.587Z,73.74
2017-09-25T09:57:17.065Z,73.99
2017-09-25T09:59:44.622Z,72.10
2017-09-25T10:02:12.088Z,71.26
2017-09-25T10:04:39.585Z,70.54
2017-09-25T10:07:07.050Z,67.97
2017-09-25T10:09:34.549Z,67.78
2017-09-25T10:12:02.009Z,67.05
2017-09-25T10:14:29.493Z,66.52
2017-09-25T10:16:57.017Z,65.73
2017-09-25T10:19:24.589Z,65.46
2017-09-25T10:21:52.031Z,65.39
2017-09-25T10:24:19.513Z,65.20
2017-09-25T10:26:46.973Z,65.63
2017-09-25T10:29:14.477Z,65.97
2017-09-25T10:31:41.936Z,63.76
2017-09-25T10:34:09.422Z,65.34
2017-09-25T10:36:36.885Z,65.01
2017-09-25T10:39:04.382Z,64.48
2017-09-25T10:41:31.841Z,64.17
2017-09-25T10:43:59.305Z,64.26
2017-09-25T10:46:26.901Z,63.94
2017-09-25T10:48:54.352Z,66.09
2017-09-25T10:51:21.818Z,65.83
2017-09-25T10:53:49.280Z,64.33
2017-09-25T10:56:16.766Z,62.92
2017-09-25T10:58:44.289Z,62.76
2017-09-25T11:01:11.769Z,62.65
2017-09-25T11:03:39.231Z,62.19
2017-09-25T11:06:06.713Z,62.55
2017-09-25T11:08:34.170Z,61.77
2017-09-25T11:11:01.820Z,62.06
2017-09-25T11:13:29.274Z,60.79
2017-09-25T11:15:56.753Z,60.62
2017-09-25T11:18:24.224Z,60.75
2017-09-25T11:20:51.905Z,61.38
2017-09-25T11:23:19.363Z,60.37
2017-09-25T11:25:46.934Z,60.81
2017-09-25T11:28:14.403Z,59.99
2017-09-25T11:30:41.941Z,61.29
2017-09-25T11:33:09.501Z,61.29
2017-09-25T11:35:36.981Z,62.50
2017-09-25T11:38:04.445Z,61.53
2017-09-25T11:40:31.975Z,62.80
2017-09-25T11:42:59.442Z,61.95
2017-09-25T11:45:26.914Z,60.56
2017-09-25T11:47:54.401Z,60.49
2017-09-25T11:50:21.847Z,60.60
2017-09-25T11:52:49.337Z,58.84
2017-09-25T11:55:16.813Z,59.07
2017-09-25T11:57:44.375Z,59.82
2017-09-25T12:00:11.827Z,60.73
2017-09-25T12:02:39.317Z,60.62
2017-09-25T12:05:06.760Z,59.59
2017-09-25T12:07:34.239Z,58.82
2017-09-25T12:10:02.110Z,57.90
2017-09-25T12:12:29.616Z,58.47
2017-09-25T12:14:57.094Z,56.65
2017-09-25T12:17:24.575Z,57.69
2017-09-25T12:19:52.097Z,58.31
2017-09-25T12:22:19.575Z,58.54
2017-09-25T12:24:47.025Z,58.77
2017-09-25T12:27:14.562Z,57.63
2017-09-25T12:29:42.122Z,57.21
2017-09-25T12:32:09.628Z,57.21
2017-09-25T12:34:37.085Z,55.53
2017-09-25T12:37:04.601Z,54.56
2017-09-25T12:39:32.157Z,53.47
2017-09-25T12:41:59.706Z,55.09
2017-09-25T12:44:27.193Z,56.21
2017-09-25T12:46:54.657Z,56.53
2017-09-25T12:49:22.193Z,56.27
2017-09-25T12:51:49.652Z,57.83
2017-09-25T12:54:17.199Z,57.40
2017-09-25T12:56:44.675Z,58.79
2017-09-25T12:59:12.164Z,57.74
2017-09-25T13:01:39.626Z,58.58
2017-09-25T13:04:07.142Z,59.37
2017-09-25T13:06:34.609Z,58.57
2017-09-25T13:09:02.079Z,58.13
2017-09-25T13:11:29.540Z,56.52
2017-09-25T13:13:57.425Z,57.57
2017-09-25T13:16:24.880Z,57.79
2017-09-25T13:18:52.337Z,58.83
2017-09-25T13:21:19.834Z,57.75
2017-09-25T13:23:47.384Z,56.15
2017-09-25T13:26:14.892Z,55.93
2017-09-25T13:28:42.354Z,55.85
2017-09-25T13:31:09.823Z,56.07
2017-09-25T13:33:37.277Z,56.12
2017-09-25T13:36:04.757Z,55.66
2017-09-25T13:38:32.236Z,54.89
2017-09-25T13:40:59.950Z,53.90
2017-09-25T13:43:27.434Z,53.97
2017-09-25T13:45:54.929Z,54.59
2017-09-25T13:48:22.390Z,55.25
2017-09-25T13:50:49.931Z,55.02
2017-09-25T13:53:17.393Z,54.42
2017-09-25T13:55:44.893Z,54.04
2017-09-25T13:58:12.392Z,54.77
2017-09-25T14:03:12.690Z,53.81
2017-09-25T14:05:40.177Z,53.98
2017-09-25T14:08:07.636Z,55.11
2017-09-25T14:10:35.122Z,55.18
2017-09-25T14:13:02.595Z,55.10
2017-09-25T14:15:30.122Z,54.27
2017-09-25T14:17:57.580Z,53.74
2017-09-25T14:20:25.059Z,53.39
2017-09-25T14:22:52.929Z,53.05
2017-09-25T14:25:20.401Z,55.90
2017-09-25T14:27:47.882Z,57.09
2017-09-25T14:30:15.390Z,56.87
2017-09-25T14:32:42.888Z,57.56
2017-09-25T14:35:10.353Z,58.60
2017-09-25T14:37:37.853Z,58.68
2017-09-25T14:40:05.316Z,58.68
2017-09-25T14:42:32.818Z,59.23
2017-09-25T14:45:00.289Z,59.64
2017-09-25T14:47:27.873Z,59.70
2017-09-25T14:49:55.434Z,59.68
2017-09-25T14:52:22.921Z,60.00
2017-09-25T14:54:50.471Z,59.76
2017-09-25T14:57:17.948Z,59.04
2017-09-25T14:59:45.394Z,60.06
2017-09-25T15:02:12.931Z,60.24
2017-09-25T15:04:40.477Z,60.82
2017-09-25T15:07:07.966Z,60.69
2017-09-25T15:09:35.426Z,61.11
2017-09-25T15:12:02.913Z,60.88
2017-09-25T15:14:30.405Z,61.23
2017-09-25T15:16:57.958Z,61.17
2017-09-25T15:19:25.400Z,61.90
2017-09-25T15:21:52.871Z,61.90
2017-09-25T15:24:20.465Z,61.42
2017-09-25T15:26:47.949Z,61.44
2017-09-25T15:29:15.395Z,60.97
2017-09-25T15:31:42.877Z,61.06
2017-09-25T15:34:10.341Z,61.47
2017-09-25T15:36:37.822Z,61.33
2017-09-25T15:39:05.396Z,61.81
2017-09-25T15:41:32.987Z,62.38
2017-09-25T15:44:00.456Z,62.81
2017-09-25T15:46:28.254Z,63.03
2017-09-25T15:48:55.703Z,63.33
2017-09-25T15:51:23.174Z,63.48
2017-09-25T15:53:50.678Z,62.74
2017-09-25T15:56:18.153Z,62.78
2017-09-25T15:58:45.639Z,63.22
2017-09-25T16:01:13.106Z,63.41
2017-09-25T16:03:40.593Z,63.65
2017-09-25T16:06:08.045Z,63.94
2017-09-25T16:08:35.528Z,64.18
2017-09-25T16:11:02.990Z,64.57
2017-09-25T16:13:30.489Z,64.96
2017-09-25T16:15:58.012Z,65.13
2017-09-25T16:18:26.179Z,65.36
2017-09-25T16:20:53.642Z,65.61
2017-09-25T16:23:21.124Z,65.72
2017-09-25T16:25:48.653Z,66.01
2017-09-25T16:28:16.145Z,66.30
2017-09-25T16:30:43.609Z,66.63
2017-09-25T16:33:11.095Z,67.13
2017-09-25T16:35:38.561Z,67.14
2017-09-25T16:38:06.043Z,67.94
2017-09-25T16:40:33.501Z,68.23
2017-09-25T16:43:00.985Z,68.52
2017-09-25T16:45:28.440Z,68.93
2017-09-25T16:47:55.925Z,69.19
2017-09-25T16:50:23.460Z,69.96
2017-09-25T16:52:51.029Z,70.15
2017-09-25T16:55:18.491Z,70.81
2017-09-25T16:57:45.988Z,71.47
2017-09-25T17:00:13.493Z,71.75
2017-09-25T17:02:41.050Z,71.89
2017-09-25T17:05:08.536Z,71.71
2017-09-25T17:07:36.003Z,72.46
2017-09-25T17:10:03.501Z,72.58
2017-09-25T17:12:30.957Z,72.67
2017-09-25T17:14:58.517Z,72.85
2017-09-25T17:17:25.973Z,72.87
2017-09-25T17:19:53.457Z,73.25
2017-09-25T17:22:21.017Z,72.95
2017-09-25T17:24:48.487Z,73.40
2017-09-25T17:27:15.997Z,73.89
2017-09-25T17:29:43.593Z,73.92
2017-09-25T17:32:11.139Z,73.70
2017-09-25T17:34:38.620Z,73.87
2017-09-25T17:37:06.090Z,73.62
2017-09-25T17:39:33.621Z,73.20
2017-09-25T17:42:01.178Z,73.10
2017-09-25T17:44:28.737Z,73.06
2017-09-25T17:46:56.288Z,72.86
2017-09-25T17:49:23.781Z,72.92
2017-09-25T17:51:51.299Z,73.69
2017-09-25T17:54:18.858Z,73.96
2017-09-25T17:56:46.321Z,74.55
2017-09-25T17:59:13.884Z,74.58
2017-09-25T18:01:41.460Z,75.04
2017-09-25T18:04:08.949Z,74.70
2017-09-25T18:06:36.420Z,75.29
2017-09-25T18:09:03.915Z,76.30
2017-09-25T18:11:31.489Z,76.46
2017-09-25T18:13:58.988Z,76.10
2017-09-25T18:16:26.449Z,76.26
2017-09-25T18:18:53.934Z,77.17
2017-09-25T18:21:21.380Z,77.30
2017-09-25T18:23:48.873Z,77.53
2017-09-25T18:26:16.406Z,78.11
2017-09-25T18:28:43.976Z,78.56
2017-09-25T18:31:11.580Z,78.37
2017-09-25T18:33:39.038Z,78.81
2017-09-25T18:36:06.525Z,79.10
2017-09-25T18:38:33.985Z,79.47
2017-09-25T18:41:01.459Z,79.39
2017-09-25T18:43:29.003Z,79.53
2017-09-25T18:45:56.490Z,79.71
2017-09-25T18:48:23.976Z,80.05
2017-09-25T18:50:51.627Z,79.94
2017-09-25T18:53:19.149Z,80.00
2017-09-25T18:55:46.637Z,79.70
2017-09-25T18:58:14.118Z,79.51
2017-09-25T19:00:41.595Z,79.37
2017-09-25T19:03:09.086Z,78.97
2017-09-25T19:05:36.580Z,79.89
2017-09-25T19:08:04.092Z,79.25
2017-09-25T19:10:31.662Z,80.01
2017-09-25T19:12:59.132Z,80.39
2017-09-25T19:15:26.674Z,80.13
2017-09-25T19:17:54.141Z,80.36
2017-09-25T19:20:21.685Z,79.80
2017-09-25T19:22:49.147Z,80.30
2017-09-25T19:25:16.644Z,80.70
2017-09-25T19:27:44.116Z,80.53
2017-09-25T19:30:11.605Z,80.76
2017-09-25T19:32:39.060Z,81.17
2017-09-25T19:35:06.558Z,80.97
2017-09-25T19:37:34.033Z,81.43
2017-09-25T19:40:01.538Z,81.53
2017-09-25T19:42:28.991Z,81.79
2017-09-25T19:44:56.445Z,81.53
2017-09-25T19:47:23.951Z,81.68
2017-09-25T19:52:51.942Z,82.59
2017-09-25T19:55:35.259Z,82.11
2017-09-25T19:58:05.115Z,81.89
2017-09-25T20:00:32.572Z,82.59
2017-09-25T20:03:00.069Z,82.09
2017-09-25T20:05:27.552Z,82.80
2017-09-25T20:07:55.045Z,82.68
2017-09-25T20:10:22.811Z,83.54
2017-09-25T20:12:50.304Z,83.34
2017-09-25T20:15:19.624Z,83.33
2017-09-25T20:17:49.025Z,82.97
2017-09-25T20:20:16.479Z,83.55
2017-09-25T20:22:44.021Z,83.32
2017-09-25T20:25:11.493Z,83.24
2017-09-25T20:27:39.029Z,83.26
2017-09-25T20:30:06.508Z,83.20
2017-09-25T20:32:34.001Z,82.66
2017-09-25T20:35:01.469Z,82.90
2017-09-25T20:37:28.957Z,82.91
2017-09-25T20:39:56.428Z,84.36
2017-09-25T20:42:27.380Z,83.72
2017-09-25T20:44:54.848Z,83.53
2017-09-25T20:47:22.334Z,84.29
2017-09-25T20:49:49.821Z,84.68
2017-09-25T20:52:17.368Z,84.51
2017-09-25T20:54:44.928Z,84.49
2017-09-25T20:57:12.422Z,84.35
2017-09-25T20:59:39.889Z,84.28
2017-09-25T21:02:07.400Z,83.56
2017-09-25T21:04:34.964Z,83.59
2017-09-25T21:07:02.477Z,83.74
2017-09-25T21:09:29.957Z,83.86
2017-09-25T21:11:57.435Z,84.44
2017-09-25T21:14:25.001Z,85.24
2017-09-25T21:16:52.557Z,85.42
2017-09-25T21:19:20.035Z,85.59
2017-09-25T21:21:47.503Z,86.01
2017-09-25T21:24:14.993Z,85.36
2017-09-25T21:29:47.262Z,84.84
2017-09-25T21:32:14.741Z,84.84
2017-09-25T21:34:42.231Z,84.41
2017-09-25T21:37:09.697Z,85.21
2017-09-25T21:39:37.186Z,84.43
2017-09-25T21:42:04.673Z,84.58
2017-09-25T21:44:32.161Z,84.38
2017-09-25T21:46:59.633Z,84.52
2017-09-25T21:49:27.182Z,84.06
2017-09-25T21:51:54.661Z,85.54
2017-09-25T21:54:22.164Z,84.55
2017-09-25T21:56:49.741Z,84.43
2017-09-25T21:59:17.256Z,83.81
2017-09-25T22:01:44.729Z,84.08
2017-09-25T22:04:12.322Z,84.76
2017-09-25T22:06:39.792Z,84.69
2017-09-25T22:09:07.338Z,84.47
2017-09-25T22:11:34.844Z,85.83
2017-09-25T22:14:02.340Z,85.63
2017-09-25T22:16:29.805Z,86.27
2017-09-25T22:18:57.369Z,85.74
2017-09-25T22:21:24.925Z,85.64
2017-09-25T22:23:52.422Z,85.50
2017-09-25T22:26:19.894Z,85.92
2017-09-25T22:28:47.356Z,85.80
2017-09-25T22:31:14.960Z,86.39
2017-09-25T22:33:42.434Z,86.33
2017-09-25T22:36:09.946Z,85.74
2017-09-25T22:38:37.417Z,85.55
2017-09-25T22:41:04.911Z,85.15
2017-09-25T22:43:35.146Z,86.67
2017-09-25T22:46:02.649Z,85.70
2017-09-25T22:48:30.215Z,85.58
2017-09-25T22:50:57.720Z,85.18
2017-09-25T22:53:25.188Z,85.12
2017-09-25T22:55:52.683Z,85.36
2017-09-25T22:58:20.145Z,85.56
2017-09-25T23:00:47.639Z,86.19
2017-09-25T23:03:15.108Z,86.48
2017-09-25T23:05:58.392Z,85.44
2017-09-25T23:08:25.850Z,84.26
2017-09-25T23:10:53.341Z,85.29
2017-09-25T23:13:20.817Z,84.95
2017-09-25T23:15:48.324Z,86.24
2017-09-25T23:18:15.801Z,86.28
2017-09-25T23:20:43.283Z,86.41
2017-09-25T23:23:10.735Z,85.96
2017-09-25T23:25:38.265Z,86.53
2017-09-25T23:28:05.734Z,86.54
2017-09-25T23:30:38.926Z,86.30
2017-09-25T23:33:06.405Z,87.40
2017-09-25T23:35:33.907Z,87.58
2017-09-25T23:38:01.463Z,87.17
2017-09-25T23:40:28.968Z,86.54
2017-09-25T23:42:56.436Z,88.07
2017-09-25T23:45:23.922Z,89.30
2017-09-25T23:47:51.387Z,88.31
2017-09-25T23:50:18.879Z,88.33
2017-09-25T23:52:46.352Z,87.90
2017-09-25T23:55:13.877Z,87.25
2017-09-25T23:57:41.433Z,87.07
